Time;durP1;ratioP1;P1;durP2;ratioP2;P2;SDS_P1;SDS_P2;PMS_P1;PMS_P2;Temp;Humidity;BMP_temperature;BMP_pressure;BME280_temperature;BME280_humidity;BME280_pressure;Samples;Min_cycle;Max_cycle;Signal;HPM_P1;HPM_P2
2021/07/17 00:01:50;;;;;;;29.70;12.97;;;;;;;18.76;78.33;101455.38;4982380;28;20641;-68
2021/07/17 00:04:16;;;;;;;24.80;12.27;;;;;;;18.73;78.36;101457.34;4975002;28;20235;-69
2021/07/17 00:06:43;;;;;;;26.20;12.23;;;;;;;18.70;78.42;101454.91;4975714;28;20205;-68
2021/07/17 00:09:10;;;;;;;27.17;12.77;;;;;;;18.68;78.50;101456.00;4981384;28;20210;-69
2021/07/17 00:11:37;;;;;;;28.57;12.10;;;;;;;18.64;78.55;101452.72;4977289;28;20209;-69
2021/07/17 00:14:04;;;;;;;28.67;11.83;;;;;;;18.62;78.63;101454.72;4981657;28;20213;-68
2021/07/17 00:16:30;;;;;;;20.70;11.80;;;;;;;18.61;78.67;101454.84;4979693;28;20228;-68
2021/07/17 00:18:58;;;;;;;27.00;13.20;;;;;;;18.56;78.74;101457.88;4989333;28;20222;-68
2021/07/17 00:21:24;;;;;;;28.30;13.10;;;;;;;18.53;78.68;101454.56;4986310;28;20616;-68
2021/07/17 00:23:52;;;;;;;26.60;12.47;;;;;;;18.49;78.92;101456.66;4975592;28;20202;-68
2021/07/17 00:26:20;;;;;;;32.63;12.77;;;;;;;18.48;78.93;101454.97;4984557;28;20285;-68
2021/07/17 00:28:46;;;;;;;25.27;11.77;;;;;;;18.43;78.93;101446.41;4991430;28;20597;-68
2021/07/17 00:31:13;;;;;;;21.40;11.53;;;;;;;18.41;79.14;101445.69;4983201;28;20218;-68
2021/07/17 00:33:39;;;;;;;31.03;12.20;;;;;;;18.38;79.12;101445.94;4984862;28;20683;-68
2021/07/17 00:36:06;;;;;;;25.80;11.63;;;;;;;18.35;79.37;101440.78;4980914;28;20237;-68
2021/07/17 00:38:33;;;;;;;28.77;12.63;;;;;;;18.31;79.50;101442.88;4984145;28;20207;-68
2021/07/17 00:40:59;;;;;;;31.83;12.57;;;;;;;18.30;79.53;101437.63;4983684;28;20217;-68
2021/07/17 00:43:27;;;;;;;24.53;12.33;;;;;;;18.28;79.60;101447.66;4991409;28;20219;-68
2021/07/17 00:45:54;;;;;;;29.33;11.77;;;;;;;18.24;79.65;101440.84;4990524;28;20239;-69
2021/07/17 00:48:22;;;;;;;30.93;12.03;;;;;;;18.22;79.86;101440.09;4978528;28;20619;-68
2021/07/17 00:50:48;;;;;;;23.47;11.80;;;;;;;18.19;79.80;101440.34;4982109;28;20210;-68
2021/07/17 00:53:15;;;;;;;32.43;12.37;;;;;;;18.17;79.94;101443.19;4987970;28;20218;-69
2021/07/17 00:55:46;;;;;;;26.60;11.63;;;;;;;18.15;79.95;101452.38;4979507;28;20618;-68
2021/07/17 00:58:16;;;;;;;22.27;11.77;;;;;;;18.15;80.12;101444.28;4993452;28;20216;-67
2021/07/17 01:00:45;;;;;;;29.87;12.27;;;;;;;18.13;80.05;101448.94;4985514;28;20212;-68
2021/07/17 01:03:12;;;;;;;21.27;11.80;;;;;;;18.11;80.11;101449.06;4980047;28;20205;-68
2021/07/17 01:05:38;;;;;;;25.07;11.97;;;;;;;18.09;80.26;101444.81;4974220;28;20220;-68
2021/07/17 01:08:05;;;;;;;26.63;13.20;;;;;;;18.08;80.32;101452.03;4978343;28;20203;-68
2021/07/17 01:10:32;;;;;;;26.77;13.30;;;;;;;18.07;80.38;101442.25;4973779;28;20246;-70
2021/07/17 01:12:58;;;;;;;30.90;13.50;;;;;;;18.06;80.54;101445.91;4973559;28;20215;-67
2021/07/17 01:15:25;;;;;;;25.57;12.27;;;;;;;18.07;80.58;101446.78;4974491;28;20235;-69
2021/07/17 01:17:53;;;;;;;26.73;11.97;;;;;;;18.06;80.76;101448.59;4991612;28;20559;-68
2021/07/17 01:20:21;;;;;;;31.77;13.10;;;;;;;18.06;80.71;101455.84;4993562;28;20223;-68
2021/07/17 01:22:50;;;;;;;32.07;13.10;;;;;;;18.06;80.69;101455.84;4978871;28;20221;-67
2021/07/17 01:25:19;;;;;;;25.57;13.57;;;;;;;18.04;80.75;101461.34;4986311;28;20228;-66
2021/07/17 01:27:46;;;;;;;26.00;13.40;;;;;;;18.02;80.71;101463.31;4989183;28;20210;-67
2021/07/17 01:30:16;;;;;;;24.97;13.10;;;;;;;18.00;80.86;101452.66;4985920;28;20245;-67
2021/07/17 01:32:43;;;;;;;27.83;13.27;;;;;;;17.98;80.80;101454.63;4976676;28;20207;-67
2021/07/17 01:35:10;;;;;;;25.33;12.97;;;;;;;17.96;80.76;101453.88;4974059;28;20724;-67
2021/07/17 01:37:37;;;;;;;29.83;13.53;;;;;;;17.96;80.90;101453.03;4989151;28;20660;-67
2021/07/17 01:40:07;;;;;;;29.83;14.77;;;;;;;17.95;80.95;101456.69;4990287;28;20660;-67
2021/07/17 01:42:36;;;;;;;28.77;13.90;;;;;;;17.92;81.01;101451.56;4973085;28;20218;-67
2021/07/17 01:45:04;;;;;;;29.67;14.30;;;;;;;17.91;81.09;101453.41;5003876;23;20242;-66
2021/07/17 01:47:30;;;;;;;22.53;12.87;;;;;;;17.89;81.10;101447.28;5018562;28;20213;-67
2021/07/17 01:49:58;;;;;;;34.00;14.30;;;;;;;17.89;81.26;101449.13;5024809;28;20207;-66
2021/07/17 01:52:24;;;;;;;35.10;14.73;;;;;;;17.89;81.11;101438.34;5013766;28;20233;-66
2021/07/17 01:54:53;;;;;;;33.30;15.13;;;;;;;17.88;81.34;101442.88;5030307;28;20205;-67
2021/07/17 01:57:21;;;;;;;30.47;14.87;;;;;;;17.87;81.35;101441.16;5003841;28;20675;-67
2021/07/17 01:59:47;;;;;;;28.80;14.47;;;;;;;17.85;81.45;101437.75;4996823;28;20210;-68
2021/07/17 02:02:14;;;;;;;33.83;16.07;;;;;;;17.84;81.31;101430.63;4998843;28;20310;-65
2021/07/17 02:04:41;;;;;;;32.30;15.07;;;;;;;17.82;81.48;101427.22;5008282;28;20209;-66
2021/07/17 02:07:08;;;;;;;35.70;14.30;;;;;;;17.82;81.45;101429.91;5000651;28;20224;-66
2021/07/17 02:09:34;;;;;;;29.83;15.10;;;;;;;17.81;81.56;101430.03;4996330;28;20218;-66
2021/07/17 02:12:02;;;;;;;27.73;13.97;;;;;;;17.79;81.73;101424.75;4996765;28;20218;-67
2021/07/17 02:14:34;;;;;;;37.83;16.80;;;;;;;17.79;81.68;101423.91;4999705;28;20213;-66
2021/07/17 02:17:01;;;;;;;31.10;15.70;;;;;;;17.76;81.78;101425.00;5006619;28;20233;-66
2021/07/17 02:19:27;;;;;;;31.57;15.30;;;;;;;17.76;81.89;101425.00;5000941;28;20231;-65
2021/07/17 02:21:54;;;;;;;37.87;15.90;;;;;;;17.76;81.87;101429.53;5002535;28;20204;-66
2021/07/17 02:24:21;;;;;;;33.17;15.57;;;;;;;17.74;81.94;101426.97;4996551;28;20213;-67
2021/07/17 02:26:48;;;;;;;36.13;15.83;;;;;;;17.73;81.95;101421.72;5000073;28;20579;-67
2021/07/17 02:29:16;;;;;;;30.87;14.53;;;;;;;17.73;82.14;101430.66;4996812;28;20215;-66
2021/07/17 02:31:44;;;;;;;30.50;15.63;;;;;;;17.73;81.90;101422.59;4998769;28;20289;-67
2021/07/17 02:34:12;;;;;;;28.90;16.30;;;;;;;17.74;82.15;101428.78;4994651;28;20688;-66
2021/07/17 02:36:39;;;;;;;36.53;16.73;;;;;;;17.75;82.14;101425.97;4997390;28;20238;-67
2021/07/17 02:39:07;;;;;;;27.37;15.07;;;;;;;17.75;82.15;101422.44;4997246;28;20599;-66
2021/07/17 02:41:34;;;;;;;25.63;15.83;;;;;;;17.74;82.09;101421.56;4995889;28;20217;-65
2021/07/17 02:44:00;;;;;;;30.73;16.27;;;;;;;17.73;82.11;101430.66;5003813;28;20222;-66
2021/07/17 02:46:27;;;;;;;34.27;15.70;;;;;;;17.74;82.07;101431.50;5000242;28;20236;-67
2021/07/17 02:48:55;;;;;;;28.77;15.17;;;;;;;17.73;82.30;101419.88;5001697;28;20703;-66
2021/07/17 02:51:22;;;;;;;34.67;16.10;;;;;;;17.73;82.04;101421.72;4994807;28;20221;-66
2021/07/17 02:53:48;;;;;;;28.43;14.97;;;;;;;17.71;82.18;101418.28;4996310;28;20209;-66
2021/07/17 02:56:15;;;;;;;26.63;15.67;;;;;;;17.72;82.19;101420.00;4997779;28;20238;-67
2021/07/17 02:58:41;;;;;;;35.67;15.70;;;;;;;17.70;82.25;101422.81;5000662;28;20483;-67
2021/07/17 03:01:08;;;;;;;28.43;15.80;;;;;;;17.68;82.26;101422.09;4996877;28;20214;-67
2021/07/17 03:03:34;;;;;;;30.40;15.20;;;;;;;17.68;82.36;101425.63;4992865;28;20211;-68
2021/07/17 03:06:02;;;;;;;32.70;15.53;;;;;;;17.68;82.21;101424.78;4996222;28;20239;-67
2021/07/17 03:08:29;;;;;;;28.57;14.77;;;;;;;17.66;82.15;101432.13;4999185;28;20210;-67
2021/07/17 03:10:55;;;;;;;31.27;16.33;;;;;;;17.65;82.28;101425.03;4994907;28;20217;-67
2021/07/17 03:13:22;;;;;;;30.50;16.73;;;;;;;17.64;82.28;101440.31;4995128;28;20202;-66
2021/07/17 03:15:50;;;;;;;29.83;15.83;;;;;;;17.65;82.20;101435.78;4991686;28;20238;-67
2021/07/17 03:18:16;;;;;;;27.47;14.77;;;;;;;17.65;82.35;101436.66;5001245;28;20207;-67
2021/07/17 03:20:43;;;;;;;29.37;16.23;;;;;;;17.64;82.17;101436.78;5006642;28;20243;-68
2021/07/17 03:23:11;;;;;;;29.90;16.20;;;;;;;17.65;82.25;101433.09;5001831;28;20225;-67
2021/07/17 03:25:37;;;;;;;29.50;15.60;;;;;;;17.64;82.28;101432.25;5005114;28;20236;-68
2021/07/17 03:28:04;;;;;;;26.73;15.73;;;;;;;17.64;82.22;101426.84;5005340;28;20684;-67
2021/07/17 03:30:31;;;;;;;38.87;15.93;;;;;;;17.64;82.65;101440.31;5006286;28;20225;-66
2021/07/17 03:32:57;;;;;;;34.73;17.10;;;;;;;17.64;82.19;101432.25;5003713;28;20584;-64
2021/07/17 03:35:24;;;;;;;34.17;16.77;;;;;;;17.64;82.31;101434.09;5009447;28;20239;-67
2021/07/17 03:37:51;;;;;;;29.57;15.60;;;;;;;17.64;82.37;101439.47;5004056;28;20210;-67
2021/07/17 03:40:19;;;;;;;36.87;16.47;;;;;;;17.63;82.33;101433.19;5005948;28;20210;-67
2021/07/17 03:42:45;;;;;;;27.67;16.13;;;;;;;17.64;82.40;101434.09;5004151;28;20205;-66
2021/07/17 03:45:12;;;;;;;28.80;15.13;;;;;;;17.64;82.38;101434.09;5000600;28;20619;-67
2021/07/17 03:47:39;;;;;;;25.67;15.13;;;;;;;17.65;82.35;101433.97;5002576;28;20217;-67
2021/07/17 03:50:06;;;;;;;31.37;14.97;;;;;;;17.64;82.55;101437.63;4999358;28;20220;-67
2021/07/17 03:52:33;;;;;;;25.20;15.23;;;;;;;17.64;82.58;101434.94;5000945;28;20211;-67
2021/07/17 03:54:59;;;;;;;25.60;14.90;;;;;;;17.66;82.61;101434.81;5011256;28;20206;-68
2021/07/17 03:57:27;;;;;;;28.63;14.47;;;;;;;17.67;82.49;101433.84;5000323;28;20697;-68
2021/07/17 03:59:54;;;;;;;30.67;15.90;;;;;;;17.65;82.51;101433.09;5009976;28;20594;-67
2021/07/17 04:02:20;;;;;;;33.47;14.73;;;;;;;17.67;82.54;101431.16;4999708;28;20207;-67
2021/07/17 04:04:48;;;;;;;27.30;14.73;;;;;;;17.65;82.65;101433.97;5002633;28;20237;-66
2021/07/17 04:07:15;;;;;;;32.03;15.43;;;;;;;17.68;82.65;101430.16;5003850;28;20233;-66
2021/07/17 04:09:41;;;;;;;32.33;15.77;;;;;;;17.69;82.63;101432.75;5005091;28;20217;-66
2021/07/17 04:12:08;;;;;;;25.97;14.07;;;;;;;17.71;82.77;101426.38;4997854;28;20217;-67
2021/07/17 04:14:36;;;;;;;27.17;14.97;;;;;;;17.71;82.79;101427.22;4999581;28;20210;-66
2021/07/17 04:17:03;;;;;;;28.10;14.23;;;;;;;17.72;82.73;101444.25;5006144;28;20237;-68
2021/07/17 04:19:30;;;;;;;22.17;14.53;;;;;;;17.72;82.71;101430.78;5004422;28;20221;-65
2021/07/17 04:21:56;;;;;;;23.50;13.40;;;;;;;17.72;82.78;101428.09;5003796;28;20297;-68
2021/07/17 04:24:23;;;;;;;23.77;15.20;;;;;;;17.72;82.69;101426.25;5002605;28;20217;-67
2021/07/17 04:26:49;;;;;;;25.57;14.43;;;;;;;17.72;82.74;101431.63;5001082;28;20490;-67
2021/07/17 04:29:16;;;;;;;27.40;14.23;;;;;;;17.74;82.82;101439.56;4999798;28;20595;-68
2021/07/17 04:31:43;;;;;;;28.10;14.47;;;;;;;17.74;82.89;101435.03;5000481;28;20209;-67
2021/07/17 04:34:10;;;;;;;19.47;13.60;;;;;;;17.75;82.92;101431.38;5004109;28;20216;-68
2021/07/17 04:36:36;;;;;;;22.80;14.67;;;;;;;17.77;82.84;101437.50;4997948;28;20704;-67
2021/07/17 04:39:03;;;;;;;33.40;15.33;;;;;;;17.78;82.83;101438.34;5001214;28;20213;-67
2021/07/17 04:41:30;;;;;;;29.27;15.60;;;;;;;17.78;83.02;101441.03;5000905;28;20201;-65
2021/07/17 04:43:56;;;;;;;27.27;14.90;;;;;;;17.80;83.16;101439.09;4999246;28;20210;-67
2021/07/17 04:46:23;;;;;;;28.10;16.03;;;;;;;17.81;82.93;101438.97;4998005;28;20260;-67
2021/07/17 04:48:51;;;;;;;34.50;15.07;;;;;;;17.82;83.11;101440.69;4996129;28;20599;-67
2021/07/17 04:51:18;;;;;;;29.97;15.07;;;;;;;17.84;82.93;101436.03;4997411;28;20210;-67
2021/07/17 04:53:44;;;;;;;30.90;16.07;;;;;;;17.84;83.21;101427.94;5000648;28;20659;-67
2021/07/17 04:56:11;;;;;;;35.03;15.57;;;;;;;17.85;83.21;101416.19;4994570;28;20232;-67
2021/07/17 04:58:37;;;;;;;26.57;15.73;;;;;;;17.87;83.08;101430.38;5000834;28;20229;-66
2021/07/17 05:01:04;;;;;;;36.93;16.83;;;;;;;17.88;83.19;101426.72;5004458;28;20214;-67
2021/07/17 05:03:30;;;;;;;37.20;16.40;;;;;;;17.89;83.18;101423.03;4995813;28;20210;-68
2021/07/17 05:05:58;;;;;;;32.83;15.93;;;;;;;17.91;83.25;101437.25;5000052;28;20224;-67
2021/07/17 05:08:24;;;;;;;33.17;17.00;;;;;;;17.93;83.24;101440.66;4997743;28;20213;-67
2021/07/17 05:10:51;;;;;;;38.07;18.23;;;;;;;17.94;83.17;101436.13;4992871;28;20223;-68
2021/07/17 05:13:18;;;;;;;34.53;15.67;;;;;;;17.96;83.39;101432.31;4995018;28;20204;-67
2021/07/17 05:15:45;;;;;;;32.07;17.03;;;;;;;17.98;83.38;101438.44;4999587;28;20718;-68
2021/07/17 05:18:12;;;;;;;44.40;18.27;;;;;;;17.99;83.38;101442.84;5000106;28;20241;-68
2021/07/17 05:20:39;;;;;;;45.63;19.00;;;;;;;18.00;83.26;101431.09;5001745;28;20668;-67
2021/07/17 05:23:08;;;;;;;39.80;17.50;;;;;;;18.00;83.34;101431.09;4998293;28;20211;-66
2021/07/17 05:25:34;;;;;;;42.57;18.17;;;;;;;18.02;83.17;101439.06;5001120;28;20321;-67
2021/07/17 05:28:01;;;;;;;39.23;17.70;;;;;;;18.02;83.18;101442.59;5000713;28;20214;-67
2021/07/17 05:30:27;;;;;;;41.37;18.40;;;;;;;18.02;83.37;101444.44;4998631;28;20515;-67
2021/07/17 05:32:54;;;;;;;47.00;19.47;;;;;;;18.03;83.34;101441.63;4997654;28;20226;-69
2021/07/17 05:35:21;;;;;;;47.03;18.27;;;;;;;18.06;83.64;101445.91;4994990;28;20231;-67
2021/07/17 05:37:47;;;;;;;39.13;17.73;;;;;;;18.07;83.40;101439.53;4993725;28;20325;-67
2021/07/17 05:40:16;;;;;;;38.30;17.80;;;;;;;18.09;83.44;101437.56;4995654;28;20204;-68
2021/07/17 05:42:43;;;;;;;38.97;18.37;;;;;;;18.11;83.31;101443.69;4997277;28;20218;-67
2021/07/17 05:45:10;;;;;;;44.10;18.60;;;;;;;18.13;83.28;101435.47;4993331;28;20232;-67
2021/07/17 05:47:37;;;;;;;37.77;18.40;;;;;;;18.15;83.30;101433.50;4996460;28;20205;-68
2021/07/17 05:50:04;;;;;;;41.30;18.10;;;;;;;18.16;83.16;101436.06;4993760;28;20697;-67
2021/07/17 05:52:31;;;;;;;41.60;17.90;;;;;;;18.18;83.10;101444.88;4998629;28;20693;-67
2021/07/17 05:54:58;;;;;;;37.07;17.30;;;;;;;18.20;83.06;101442.06;5002848;28;20537;-67
2021/07/17 05:57:25;;;;;;;37.43;17.70;;;;;;;18.20;82.85;101437.53;4999169;28;20227;-67
2021/07/17 05:59:52;;;;;;;37.57;17.97;;;;;;;18.21;83.03;101444.66;5003991;28;20206;-65
2021/07/17 06:02:18;;;;;;;37.93;17.93;;;;;;;18.23;82.92;101458.84;4996602;28;20210;-66
2021/07/17 06:04:45;;;;;;;36.93;18.07;;;;;;;18.25;82.99;101461.44;5001736;28;20240;-68
2021/07/17 06:07:12;;;;;;;34.83;17.63;;;;;;;18.27;83.01;101456.78;5000805;28;20223;-67
2021/07/17 06:09:41;;;;;;;42.07;18.60;;;;;;;18.30;82.82;101461.88;4996260;28;20210;-67
2021/07/17 06:12:08;;;;;;;41.20;18.80;;;;;;;18.33;82.72;101469.72;4993600;28;20612;-68
2021/07/17 06:14:36;;;;;;;38.50;16.80;;;;;;;18.34;82.64;101460.66;4996102;28;20266;-67
2021/07/17 06:17:03;;;;;;;37.90;16.83;;;;;;;18.35;82.78;101471.31;4994963;28;20237;-69
2021/07/17 06:19:30;;;;;;;32.63;16.80;;;;;;;18.39;82.44;101469.22;5000636;28;20215;-66
2021/07/17 06:21:56;;;;;;;32.70;17.23;;;;;;;18.39;82.22;101464.69;5002752;28;20239;-67
2021/07/17 06:24:23;;;;;;;36.40;17.30;;;;;;;18.40;82.21;101470.94;4993943;28;20221;-67
2021/07/17 06:26:50;;;;;;;41.80;17.50;;;;;;;18.43;82.28;101469.84;4995656;28;20226;-67
2021/07/17 06:29:16;;;;;;;33.03;17.17;;;;;;;18.46;82.17;101464.16;4994124;28;20204;-67
2021/07/17 06:31:44;;;;;;;34.30;17.60;;;;;;;18.49;82.09;101470.16;4995539;28;20212;-65
2021/07/17 06:34:10;;;;;;;39.43;17.07;;;;;;;18.53;82.06;101487.81;5003169;28;20204;-65
2021/07/17 06:36:37;;;;;;;33.80;16.50;;;;;;;18.57;82.04;101474.94;4997001;28;20250;-65
2021/07/17 06:39:04;;;;;;;34.47;16.57;;;;;;;18.61;81.92;101482.69;5000361;28;20210;-65
2021/07/17 06:41:30;;;;;;;32.70;17.00;;;;;;;18.67;81.89;101478.59;4999894;28;20203;-65
2021/07/17 06:43:57;;;;;;;30.83;16.20;;;;;;;18.72;81.99;101479.91;5000500;28;20209;-66
2021/07/17 06:46:23;;;;;;;34.13;17.37;;;;;;;18.78;81.68;101480.41;5001157;28;20262;-66
2021/07/17 06:48:51;;;;;;;31.77;15.67;;;;;;;18.84;81.46;101479.84;4994562;28;20211;-67
2021/07/17 06:51:18;;;;;;;31.40;16.07;;;;;;;18.85;80.96;101479.72;4999606;28;20229;-67
2021/07/17 06:53:44;;;;;;;33.90;16.03;;;;;;;18.87;80.85;101479.59;4999544;28;20205;-66
2021/07/17 06:56:13;;;;;;;28.43;16.27;;;;;;;18.86;80.46;101478.75;5004468;28;20229;-67
2021/07/17 06:58:39;;;;;;;26.93;15.80;;;;;;;18.87;80.53;101475.06;4993370;28;20225;-67
2021/07/17 07:01:06;;;;;;;29.50;15.10;;;;;;;18.90;80.45;101477.50;4994965;28;20207;-67
2021/07/17 07:03:32;;;;;;;20.43;15.20;;;;;;;18.92;80.38;101477.38;5000140;28;20212;-67
2021/07/17 07:06:00;;;;;;;25.17;15.13;;;;;;;18.94;80.27;101480.81;4999000;28;20236;-67
2021/07/17 07:08:27;;;;;;;23.73;15.13;;;;;;;18.95;80.32;101491.47;5005227;28;20211;-67
2021/07/17 07:10:53;;;;;;;28.67;15.83;;;;;;;19.01;80.41;101498.16;5006601;28;20211;-66
2021/07/17 07:13:20;;;;;;;25.80;15.20;;;;;;;19.04;80.22;101496.06;5003192;28;20202;-66
2021/07/17 07:15:47;;;;;;;32.13;15.37;;;;;;;19.09;80.17;101484.88;4995144;28;20660;-67
2021/07/17 07:18:15;;;;;;;22.87;14.13;;;;;;;19.13;79.98;101491.75;4999439;28;20233;-67
2021/07/17 07:20:42;;;;;;;29.73;14.70;;;;;;;19.18;79.84;101499.41;4992761;28;20679;-68
2021/07/17 07:23:09;;;;;;;23.13;15.10;;;;;;;19.25;79.94;101496.06;4991040;28;20202;-64
2021/07/17 07:25:40;;;;;;;29.87;15.50;;;;;;;19.31;79.82;101494.69;4996309;28;20231;-66
2021/07/17 07:28:07;;;;;;;26.43;14.37;;;;;;;19.37;79.31;101495.00;4994961;28;20205;-67
2021/07/17 07:30:34;;;;;;;24.00;13.87;;;;;;;19.43;79.11;101490.91;4989698;28;20961;-66
2021/07/17 07:33:00;;;;;;;22.50;12.70;;;;;;;19.48;78.96;101488.69;4993536;28;20233;-65
2021/07/17 07:35:28;;;;;;;27.57;12.90;;;;;;;19.51;78.60;101491.16;4993518;28;20233;-66
2021/07/17 07:37:55;;;;;;;20.30;14.10;;;;;;;19.56;78.68;101491.59;4994686;28;20228;-67
2021/07/17 07:40:25;;;;;;;26.10;13.53;;;;;;;19.60;78.14;101497.56;5001618;28;20694;-66
2021/07/17 07:42:52;;;;;;;19.97;13.20;;;;;;;19.62;77.91;101496.44;4997081;28;20653;-67
2021/07/17 07:47:52;;;;;;;25.10;12.67;;;;;;;19.69;77.82;101494.09;4997364;28;20218;-66
2021/07/17 07:50:20;;;;;;;23.77;12.87;;;;;;;19.72;77.72;101491.09;5002452;28;20209;-68
2021/07/17 07:52:46;;;;;;;23.53;12.97;;;;;;;19.79;77.51;101494.97;4993611;28;20221;-66
2021/07/17 07:55:13;;;;;;;20.00;11.90;;;;;;;19.85;77.52;101493.56;5000541;28;20210;-70
2021/07/17 07:57:41;;;;;;;18.10;13.27;;;;;;;19.89;77.47;101497.69;5004342;28;20223;-69
2021/07/17 08:00:09;;;;;;;24.10;13.37;;;;;;;19.93;77.07;101501.84;5005021;28;20202;-70
2021/07/17 08:02:36;;;;;;;19.17;12.27;;;;;;;19.97;76.59;101500.56;5005573;28;20209;-70
2021/07/17 08:05:03;;;;;;;20.40;12.30;;;;;;;20.01;76.54;101500.19;5008625;28;20213;-70
2021/07/17 08:07:29;;;;;;;21.47;12.30;;;;;;;20.06;76.49;101500.59;5009054;28;20221;-69
2021/07/17 08:09:56;;;;;;;17.80;11.77;;;;;;;20.15;76.32;101495.38;5009639;28;20211;-69
2021/07/17 08:12:23;;;;;;;25.60;12.43;;;;;;;20.25;76.43;101496.22;5010142;28;20699;-70
2021/07/17 08:14:51;;;;;;;16.87;10.80;;;;;;;20.34;75.97;101500.81;5010665;28;20205;-69
2021/07/17 08:17:17;;;;;;;19.77;11.93;;;;;;;20.40;75.40;101501.16;5007375;28;20258;-70
2021/07/17 08:19:44;;;;;;;21.73;12.23;;;;;;;20.45;75.16;101500.72;5009803;28;20211;-70
2021/07/17 08:22:10;;;;;;;18.67;10.50;;;;;;;20.50;74.81;101498.44;5008445;28;20654;-70
2021/07/17 08:24:37;;;;;;;15.07;10.40;;;;;;;20.60;74.67;101490.38;5010745;28;20210;-70
2021/07/17 08:27:05;;;;;;;17.53;10.47;;;;;;;20.71;74.16;101488.34;5008618;28;20238;-70
2021/07/17 08:29:31;;;;;;;15.77;9.80;;;;;;;20.80;73.65;101495.63;5010863;28;20215;-69
2021/07/17 08:31:59;;;;;;;14.80;9.53;;;;;;;20.92;73.50;101490.06;5010542;28;20225;-70
2021/07/17 08:34:26;;;;;;;17.43;9.10;;;;;;;21.04;73.13;101494.31;5010524;28;20201;-69
2021/07/17 08:36:52;;;;;;;14.70;8.77;;;;;;;21.18;72.84;101483.03;5010121;28;20588;-70
2021/07/17 08:39:18;;;;;;;19.07;10.03;;;;;;;21.29;71.93;101493.75;5009000;28;20229;-70
2021/07/17 08:41:50;;;;;;;15.43;8.43;;;;;;;21.40;71.79;101488.16;5010368;28;20206;-70
2021/07/17 08:44:18;;;;;;;13.43;8.13;;;;;;;21.53;71.32;101479.69;5009415;28;20242;-70
2021/07/17 08:46:45;;;;;;;13.67;7.57;;;;;;;21.69;70.98;101479.06;5010048;28;20240;-69
2021/07/17 08:49:15;;;;;;;12.55;6.68;;;;;;;21.85;70.28;101486.56;5009565;28;20206;-69
2021/07/17 08:51:45;;;;;;;11.73;6.63;;;;;;;22.00;70.29;101485.97;5008725;28;20202;-70
2021/07/17 08:54:13;;;;;;;11.60;6.32;;;;;;;22.20;69.73;101480.44;5010770;28;20203;-70
2021/07/17 08:56:40;;;;;;;10.60;6.03;;;;;;;22.37;68.68;101485.03;5009122;28;20401;-69
2021/07/17 08:59:07;;;;;;;11.10;5.93;;;;;;;22.51;68.18;101477.19;5010272;28;20226;-70
2021/07/17 09:01:33;;;;;;;13.55;6.30;;;;;;;22.69;67.97;101482.63;5009709;28;20250;-69
2021/07/17 09:04:01;;;;;;;11.15;5.63;;;;;;;22.90;67.36;101481.50;5007974;28;20665;-70
2021/07/17 09:06:29;;;;;;;9.77;5.50;;;;;;;23.08;66.39;101480.44;5009604;28;20269;-70
2021/07/17 09:08:55;;;;;;;8.82;5.68;;;;;;;23.26;65.28;101471.41;5010205;28;20294;-70
2021/07/17 09:11:34;;;;;;;8.48;5.50;;;;;;;23.43;64.57;101478.66;5010213;28;20686;-69
2021/07/17 09:14:01;;;;;;;9.60;4.75;;;;;;;23.58;64.02;101479.78;5008252;28;20217;-70
2021/07/17 09:16:31;;;;;;;7.60;4.57;;;;;;;23.73;63.31;101480.03;5009652;28;20222;-70
2021/07/17 09:18:58;;;;;;;9.57;4.72;;;;;;;23.91;62.81;101474.50;5009965;28;20223;-69
2021/07/17 09:21:27;;;;;;;9.15;4.78;;;;;;;24.08;62.57;101473.53;5009519;28;20206;-69
2021/07/17 09:23:57;;;;;;;10.52;5.32;;;;;;;24.30;61.87;101463.94;5009120;28;20214;-70
2021/07/17 09:26:25;;;;;;;11.07;4.70;;;;;;;24.46;61.18;101467.56;5008695;28;20982;-70
2021/07/17 09:28:56;;;;;;;7.18;4.82;;;;;;;24.61;60.41;101475.91;5007831;28;20196;-70
2021/07/17 09:31:23;;;;;;;8.02;4.50;;;;;;;24.77;60.74;101467.75;5008494;28;20206;-69
2021/07/17 09:33:51;;;;;;;11.20;4.93;;;;;;;24.92;59.53;101466.03;5007614;28;20790;-69
2021/07/17 09:36:18;;;;;;;8.63;4.35;;;;;;;25.08;59.03;101461.66;5010664;28;20269;-69
2021/07/17 09:38:51;;;;;;;7.07;4.18;;;;;;;25.21;58.58;101457.38;5009051;28;20272;-70
2021/07/17 09:41:20;;;;;;;9.35;4.72;;;;;;;25.34;57.45;101450.53;5009498;28;20630;-70
2021/07/17 09:43:59;;;;;;;7.40;4.10;;;;;;;25.46;56.67;101451.84;5007369;28;20215;-70
2021/07/17 09:46:27;;;;;;;5.57;3.80;;;;;;;25.58;56.36;101458.66;5007168;28;20940;-70
2021/07/17 09:48:56;;;;;;;6.93;4.30;;;;;;;25.75;56.00;101456.75;5008392;28;20206;-70
2021/07/17 09:51:25;;;;;;;6.78;3.78;;;;;;;25.85;55.23;101450.03;5010397;28;20198;-70
2021/07/17 09:53:53;;;;;;;4.75;3.92;;;;;;;25.99;54.89;101453.91;5006228;28;20673;-71
2021/07/17 09:56:24;;;;;;;5.88;3.83;;;;;;;26.09;53.49;101450.97;5008631;28;20250;-75
2021/07/17 09:58:51;;;;;;;5.22;3.67;;;;;;;26.12;52.90;101448.72;5007963;28;20227;-71
2021/07/17 10:01:26;;;;;;;5.03;3.58;;;;;;;26.19;52.83;101449.69;5009814;28;20203;-72
2021/07/17 10:03:58;;;;;;;4.88;3.40;;;;;;;26.32;52.76;101445.59;5007612;28;20694;-72
2021/07/17 10:06:44;;;;;;;4.80;3.20;;;;;;;26.47;51.95;101451.97;5006361;28;20223;-71
2021/07/17 10:09:32;;;;;;;6.72;3.22;;;;;;;26.63;51.18;101443.63;5005427;28;20238;-71
2021/07/17 10:12:02;;;;;;;5.00;3.03;;;;;;;26.75;50.16;101455.84;5004509;28;20211;-70
2021/07/17 10:14:33;;;;;;;5.10;2.83;;;;;;;26.81;49.41;101452.38;5006457;28;20214;-72
2021/07/17 10:17:04;;;;;;;4.68;3.03;;;;;;;26.85;48.96;101453.72;5008415;28;20649;-71
2021/07/17 10:19:31;;;;;;;3.70;2.53;;;;;;;26.88;48.72;101445.13;5005655;28;20222;-71
2021/07/17 10:21:58;;;;;;;4.50;2.83;;;;;;;27.00;48.69;101453.78;5004870;28;20210;-72
2021/07/17 10:24:26;;;;;;;4.93;2.67;;;;;;;27.10;47.78;101456.25;5002985;28;20656;-72
2021/07/17 10:26:54;;;;;;;2.88;2.50;;;;;;;27.16;46.82;101450.03;4999846;28;20227;-70
2021/07/17 10:29:24;;;;;;;3.35;2.13;;;;;;;27.17;46.04;101451.75;5001301;28;20230;-72
2021/07/17 10:31:52;;;;;;;3.33;2.20;;;;;;;27.24;45.94;101449.94;5002066;28;20699;-71
2021/07/17 10:34:19;;;;;;;3.75;2.28;;;;;;;27.29;45.28;101448.34;5002780;28;20214;-72
2021/07/17 10:36:52;;;;;;;3.67;2.25;;;;;;;27.44;44.84;101445.63;5001800;28;20219;-70
2021/07/17 10:39:23;;;;;;;2.97;2.20;;;;;;;27.59;44.36;101445.66;5006284;28;20281;-71
2021/07/17 10:41:50;;;;;;;7.82;2.70;;;;;;;27.64;44.18;101433.09;5000582;28;20219;-72
2021/07/17 10:44:17;;;;;;;2.85;2.17;;;;;;;27.72;43.86;101442.28;5004306;28;20206;-70
2021/07/17 10:46:45;;;;;;;3.25;1.83;;;;;;;27.76;43.61;101430.75;5002668;28;20241;-71
2021/07/17 10:49:12;;;;;;;3.42;2.10;;;;;;;27.82;43.51;101437.34;5005134;28;20203;-71
2021/07/17 10:51:40;;;;;;;2.17;1.80;;;;;;;27.88;43.21;101437.44;5004148;28;20199;-71
2021/07/17 10:54:08;;;;;;;3.72;1.90;;;;;;;27.94;42.84;101431.19;5003931;28;20221;-69
2021/07/17 10:56:40;;;;;;;2.78;1.50;;;;;;;28.04;42.72;101439.09;5002762;28;20722;-67
2021/07/17 10:59:29;;;;;;;5.18;3.97;;;;;;;28.08;41.94;101434.09;5009705;28;20223;-67
2021/07/17 11:02:05;;;;;;;3.97;2.92;;;;;;;27.99;42.00;101436.09;5008839;28;20207;-67
2021/07/17 11:04:35;;;;;;;3.58;1.80;;;;;;;27.89;41.95;101439.13;4998916;28;20203;-67
2021/07/17 11:07:38;;;;;;;2.13;1.60;;;;;;;27.85;42.01;101428.75;5001713;28;20226;-67
2021/07/17 11:10:27;;;;;;;3.33;1.60;;;;;;;27.81;41.86;101425.53;5006522;28;20194;-69
2021/07/17 11:12:57;;;;;;;5.45;1.77;;;;;;;27.85;42.05;101426.88;5002511;28;20685;-67
2021/07/17 11:15:41;;;;;;;3.03;1.70;;;;;;;28.01;42.77;101425.78;5000936;28;20621;-67
2021/07/17 11:18:38;;;;;;;2.03;1.67;;;;;;;28.19;42.58;101426.25;5007387;28;20791;-67